createdAt,value
2023-05-08T00:00:42.545Z,10.24
2023-05-08T00:03:10.280Z,10.30
2023-05-08T00:05:37.993Z,10.27
2023-05-08T00:08:05.993Z,10.27
2023-05-08T00:10:33.708Z,10.25
2023-05-08T00:13:01.296Z,10.22
2023-05-08T00:15:29.509Z,10.18
2023-05-08T00:17:58.752Z,10.22
2023-05-08T00:20:26.398Z,10.18
2023-05-08T00:22:53.891Z,10.20
2023-05-08T00:25:21.422Z,10.17
2023-05-08T00:27:49.149Z,10.19
2023-05-08T00:30:16.935Z,10.23
2023-05-08T00:32:44.536Z,10.21
2023-05-08T00:35:12.081Z,10.20
2023-05-08T00:37:41.373Z,10.11
2023-05-08T00:40:10.584Z,10.10
2023-05-08T00:42:38.728Z,10.11
2023-05-08T00:45:07.343Z,10.10
2023-05-08T00:47:35.822Z,10.10
2023-05-08T00:50:04.807Z,10.09
2023-05-08T00:52:33.848Z,10.09
2023-05-08T00:55:02.954Z,10.09
2023-05-08T00:57:34.600Z,10.07
2023-05-08T01:00:04.425Z,10.09
2023-05-08T01:02:32.878Z,10.04
2023-05-08T01:05:00.951Z,10.00
2023-05-08T01:07:28.876Z,9.96
2023-05-08T01:09:56.657Z,10.00
2023-05-08T01:12:40.762Z,9.98
2023-05-08T01:15:08.710Z,9.99
2023-05-08T01:17:42.684Z,10.02
2023-05-08T01:20:17.801Z,10.09
2023-05-08T01:23:22.989Z,10.10
2023-05-08T01:26:07.672Z,9.97
2023-05-08T01:28:53.804Z,9.97
2023-05-08T01:31:30.762Z,10.04
2023-05-08T01:34:14.985Z,9.99
2023-05-08T01:37:00.853Z,9.95
2023-05-08T01:39:28.495Z,9.89
2023-05-08T01:42:06.022Z,9.84
2023-05-08T01:44:45.821Z,9.76
2023-05-08T01:47:15.991Z,9.72
2023-05-08T01:49:49.488Z,9.76
2023-05-08T01:52:28.588Z,9.75
2023-05-08T01:55:01.060Z,9.71
2023-05-08T01:57:30.197Z,9.73
2023-05-08T02:00:01.277Z,9.77
2023-05-08T02:02:32.305Z,9.75
2023-05-08T02:05:04.813Z,9.77
2023-05-08T02:07:35.422Z,9.74
2023-05-08T02:10:04.606Z,9.77
2023-05-08T02:12:33.084Z,9.73
2023-05-08T02:15:02.577Z,9.71
2023-05-08T02:17:32.126Z,9.75
2023-05-08T02:20:03.561Z,9.73
2023-05-08T02:22:33.177Z,9.63
2023-05-08T02:25:01.806Z,9.54
2023-05-08T02:27:31.608Z,9.57
2023-05-08T02:30:00.706Z,9.52
2023-05-08T02:32:31.075Z,9.55
2023-05-08T02:35:03.510Z,9.56
2023-05-08T02:37:34.364Z,9.59
2023-05-08T02:40:04.174Z,9.58
2023-05-08T02:42:32.458Z,9.52
2023-05-08T02:45:00.210Z,9.59
2023-05-08T02:47:34.484Z,9.63
2023-05-08T02:50:20.917Z,9.54
2023-05-08T02:52:54.557Z,9.52
2023-05-08T02:55:33.355Z,9.53
2023-05-08T02:58:20.584Z,9.56
2023-05-08T03:00:56.877Z,9.55
2023-05-08T03:03:31.880Z,9.62
2023-05-08T03:06:02.853Z,9.62
2023-05-08T03:08:34.887Z,9.63
2023-05-08T03:11:09.254Z,9.52
2023-05-08T03:13:41.018Z,9.54
2023-05-08T03:16:15.474Z,9.56
2023-05-08T03:19:05.879Z,9.49
2023-05-08T03:21:37.441Z,9.46
2023-05-08T03:24:07.391Z,9.44
2023-05-08T03:26:36.454Z,9.55
2023-05-08T03:29:05.685Z,9.46
2023-05-08T03:31:35.526Z,9.41
2023-05-08T03:34:05.275Z,9.47
2023-05-08T03:36:33.216Z,9.48
2023-05-08T03:39:02.059Z,9.50
2023-05-08T03:41:30.641Z,9.40
2023-05-08T03:43:59.168Z,9.40
2023-05-08T03:46:26.945Z,9.38
2023-05-08T03:48:55.426Z,9.35
2023-05-08T03:51:23.483Z,9.43
2023-05-08T03:53:52.035Z,9.48
2023-05-08T03:56:24.077Z,9.50
2023-05-08T03:59:09.305Z,9.38
2023-05-08T04:01:41.257Z,9.40
2023-05-08T04:04:21.620Z,9.35
2023-05-08T04:07:24.876Z,9.34
2023-05-08T04:10:16.518Z,9.43
2023-05-08T04:13:04.940Z,9.44
2023-05-08T04:15:38.599Z,9.38
2023-05-08T04:18:10.266Z,9.44
2023-05-08T04:20:42.459Z,9.54
2023-05-08T04:23:17.325Z,9.65
2023-05-08T04:25:48.706Z,9.64
2023-05-08T04:28:21.447Z,9.66
2023-05-08T04:30:49.907Z,9.59
2023-05-08T04:33:18.920Z,9.56
2023-05-08T04:35:46.875Z,9.59
2023-05-08T04:38:15.330Z,9.71
2023-05-08T04:40:43.496Z,9.82
2023-05-08T04:43:12.415Z,9.85
2023-05-08T04:45:39.942Z,9.74
2023-05-08T04:48:07.692Z,9.69
2023-05-08T04:50:35.357Z,9.66
2023-05-08T04:53:02.905Z,9.74
2023-05-08T04:55:31.029Z,9.62
2023-05-08T04:57:58.508Z,9.56
2023-05-08T05:00:26.189Z,9.52
2023-05-08T05:02:53.829Z,9.49
2023-05-08T05:05:21.698Z,9.57
2023-05-08T05:07:49.464Z,9.58
2023-05-08T05:10:18.161Z,9.63
2023-05-08T05:12:47.783Z,9.60
2023-05-08T05:15:15.860Z,9.73
2023-05-08T05:17:44.029Z,9.87
2023-05-08T05:20:12.493Z,9.99
2023-05-08T05:22:40.080Z,10.09
2023-05-08T05:25:09.496Z,9.98
2023-05-08T05:27:37.366Z,9.98
2023-05-08T05:30:07.025Z,10.04
2023-05-08T05:32:34.806Z,10.11
2023-05-08T05:35:02.746Z,10.13
2023-05-08T05:37:30.564Z,10.08
2023-05-08T05:39:58.118Z,10.09
2023-05-08T05:42:25.910Z,10.19
2023-05-08T05:44:57.086Z,10.28
2023-05-08T05:47:25.392Z,10.31
2023-05-08T05:49:53.232Z,10.37
2023-05-08T05:52:21.243Z,10.31
2023-05-08T05:54:49.014Z,10.38
2023-05-08T05:57:16.629Z,10.41
2023-05-08T05:59:44.647Z,10.62
2023-05-08T06:02:18.676Z,10.64
2023-05-08T06:04:46.799Z,10.78
2023-05-08T06:07:15.081Z,10.82
2023-05-08T06:09:42.711Z,10.89
2023-05-08T06:12:12.107Z,10.96
2023-05-08T06:14:39.820Z,11.07
2023-05-08T06:17:07.979Z,11.18
2023-05-08T06:19:36.049Z,11.04
2023-05-08T06:22:03.808Z,10.85
2023-05-08T06:24:31.364Z,10.88
2023-05-08T06:26:59.353Z,10.94
2023-05-08T06:29:27.018Z,11.07
2023-05-08T06:31:54.612Z,11.06
2023-05-08T06:34:25.575Z,11.31
2023-05-08T06:36:53.136Z,11.42
2023-05-08T06:39:20.661Z,11.50
2023-05-08T06:41:49.021Z,11.69
2023-05-08T06:44:24.930Z,11.83
2023-05-08T06:46:52.520Z,11.92
2023-05-08T06:49:20.058Z,12.07
2023-05-08T06:51:47.627Z,12.03
2023-05-08T06:54:15.615Z,12.08
2023-05-08T06:56:43.349Z,12.01
2023-05-08T06:59:10.914Z,11.86
2023-05-08T07:01:38.616Z,11.84
2023-05-08T07:04:06.241Z,11.99
2023-05-08T07:06:34.639Z,12.11
2023-05-08T07:09:02.393Z,12.02
2023-05-08T07:11:30.089Z,12.19
2023-05-08T07:13:57.690Z,12.27
2023-05-08T07:16:25.207Z,12.24
2023-05-08T07:18:52.768Z,12.46
2023-05-08T07:21:21.378Z,12.58
2023-05-08T07:23:51.739Z,12.72
2023-05-08T07:26:19.403Z,12.71
2023-05-08T07:28:47.164Z,12.76
2023-05-08T07:31:14.785Z,12.66
2023-05-08T07:33:42.676Z,12.70
2023-05-08T07:36:10.177Z,12.88
2023-05-08T07:38:38.295Z,12.81
2023-05-08T07:41:07.074Z,12.96
2023-05-08T07:43:35.014Z,12.97
2023-05-08T07:46:02.977Z,12.82
2023-05-08T07:48:31.326Z,12.92
2023-05-08T07:50:58.832Z,13.17
2023-05-08T07:53:26.546Z,13.32
2023-05-08T07:55:54.459Z,13.22
2023-05-08T07:58:23.785Z,13.26
2023-05-08T08:00:51.974Z,13.02
2023-05-08T08:03:19.744Z,12.99
2023-05-08T08:05:47.412Z,13.05
2023-05-08T08:08:14.973Z,13.12
2023-05-08T08:10:42.509Z,13.29
2023-05-08T08:13:10.175Z,13.31
2023-05-08T08:15:37.791Z,13.41
2023-05-08T08:18:05.421Z,13.50
2023-05-08T08:20:32.931Z,13.46
2023-05-08T08:23:00.548Z,13.65
2023-05-08T08:25:28.440Z,13.52
2023-05-08T08:27:55.985Z,13.72
2023-05-08T08:30:23.638Z,13.78
2023-05-08T08:32:51.210Z,13.95
2023-05-08T08:35:18.977Z,13.91
2023-05-08T08:37:46.573Z,14.12
2023-05-08T08:40:14.158Z,14.09
2023-05-08T08:42:41.914Z,14.14
2023-05-08T08:45:11.201Z,14.44
2023-05-08T08:47:43.236Z,14.52
2023-05-08T08:50:14.650Z,14.66
2023-05-08T08:52:58.687Z,14.65
2023-05-08T08:55:26.988Z,14.97
2023-05-08T08:58:03.250Z,14.94
2023-05-08T09:00:32.629Z,14.90
2023-05-08T09:03:00.647Z,14.97
2023-05-08T09:05:28.601Z,14.88
2023-05-08T09:07:56.357Z,14.82
2023-05-08T09:10:27.210Z,15.06
2023-05-08T09:12:55.102Z,15.29
2023-05-08T09:15:22.706Z,15.48
2023-05-08T09:17:50.355Z,15.40
2023-05-08T09:20:18.905Z,15.16
2023-05-08T09:22:46.770Z,15.06
2023-05-08T09:25:14.634Z,14.95
2023-05-08T09:27:42.429Z,15.10
2023-05-08T09:30:11.755Z,15.44
2023-05-08T09:32:41.066Z,15.37
2023-05-08T09:35:09.963Z,15.60
2023-05-08T09:37:43.233Z,15.90
2023-05-08T09:40:22.124Z,15.68
2023-05-08T09:42:51.055Z,15.57
2023-05-08T09:45:31.444Z,15.62
2023-05-08T09:47:59.565Z,15.64
2023-05-08T09:50:27.947Z,15.69
2023-05-08T09:52:55.815Z,15.42
2023-05-08T09:55:23.484Z,15.47
2023-05-08T09:57:59.794Z,15.36
2023-05-08T10:00:30.092Z,15.22
2023-05-08T10:03:00.099Z,15.32
2023-05-08T10:05:31.642Z,15.30
2023-05-08T10:08:18.733Z,15.35
2023-05-08T10:10:46.666Z,15.43
2023-05-08T10:13:14.559Z,15.37
2023-05-08T10:15:43.699Z,15.71
2023-05-08T10:18:12.364Z,15.78
2023-05-08T10:20:42.379Z,15.83
2023-05-08T10:23:14.937Z,15.60
2023-05-08T10:25:46.291Z,15.54
2023-05-08T10:28:22.932Z,15.78
2023-05-08T10:30:51.177Z,15.90
2023-05-08T10:33:21.652Z,16.32
2023-05-08T10:35:49.554Z,16.27
2023-05-08T10:38:17.639Z,16.35
2023-05-08T10:40:46.184Z,16.27
2023-05-08T10:43:14.675Z,15.98
2023-05-08T10:45:42.740Z,15.79
2023-05-08T10:48:39.439Z,15.60
2023-05-08T10:51:22.052Z,15.73
2023-05-08T10:53:55.406Z,15.99
2023-05-08T10:56:27.551Z,16.09
2023-05-08T10:58:59.240Z,16.02
2023-05-08T11:01:27.137Z,16.13
2023-05-08T11:03:58.087Z,15.79
2023-05-08T11:06:46.055Z,16.10
2023-05-08T11:09:22.086Z,16.46
2023-05-08T11:12:16.029Z,16.57
2023-05-08T11:14:53.402Z,16.84
2023-05-08T11:17:25.548Z,16.98
2023-05-08T11:20:01.226Z,16.87
2023-05-08T11:22:29.971Z,16.39
2023-05-08T11:25:03.657Z,16.37
2023-05-08T11:27:47.241Z,16.60
2023-05-08T11:30:24.420Z,16.90
2023-05-08T11:33:04.233Z,16.72
2023-05-08T11:35:57.246Z,16.41
2023-05-08T11:38:30.753Z,16.36
2023-05-08T11:41:07.449Z,16.34
2023-05-08T11:43:37.905Z,16.05
2023-05-08T11:46:05.853Z,15.97
2023-05-08T11:48:33.876Z,16.02
2023-05-08T11:51:02.956Z,15.82
2023-05-08T11:53:31.461Z,15.73
2023-05-08T11:56:00.622Z,15.73
2023-05-08T11:58:28.116Z,16.03
2023-05-08T12:00:55.986Z,16.57
2023-05-08T12:03:27.851Z,16.65
2023-05-08T12:05:57.706Z,16.52
2023-05-08T12:08:26.386Z,16.95
2023-05-08T12:10:55.670Z,17.04
2023-05-08T12:13:27.644Z,16.97
2023-05-08T12:16:00.610Z,16.58
2023-05-08T12:18:30.609Z,16.35
2023-05-08T12:21:00.224Z,16.38
2023-05-08T12:23:29.675Z,16.48
2023-05-08T12:26:01.780Z,16.22
2023-05-08T12:28:32.494Z,16.15
2023-05-08T12:31:00.765Z,16.03
2023-05-08T12:33:29.279Z,15.93
2023-05-08T12:35:57.407Z,15.95
2023-05-08T12:38:28.289Z,15.94
2023-05-08T12:40:56.202Z,16.25
2023-05-08T12:43:34.786Z,16.27
2023-05-08T12:46:06.244Z,16.23
2023-05-08T12:48:34.310Z,16.14
2023-05-08T12:51:04.002Z,15.98
2023-05-08T12:53:32.917Z,15.79
2023-05-08T12:56:04.610Z,15.69
2023-05-08T12:58:34.761Z,15.82
2023-05-08T13:01:13.274Z,15.84
2023-05-08T13:03:41.680Z,15.76
2023-05-08T13:06:21.026Z,15.71
2023-05-08T13:08:55.284Z,15.70
2023-05-08T13:11:31.621Z,15.76
2023-05-08T13:13:59.404Z,15.74
2023-05-08T13:16:27.126Z,15.76
2023-05-08T13:18:54.693Z,15.80
2023-05-08T13:21:22.288Z,15.78
2023-05-08T13:23:49.847Z,15.84
2023-05-08T13:26:17.501Z,16.02
2023-05-08T13:28:45.038Z,16.06
2023-05-08T13:31:12.590Z,16.23
2023-05-08T13:33:40.175Z,16.14
2023-05-08T13:36:08.444Z,16.12
2023-05-08T13:38:36.172Z,16.09
2023-05-08T13:41:03.714Z,16.16
2023-05-08T13:43:31.336Z,16.02
2023-05-08T13:45:58.896Z,15.82
2023-05-08T13:48:26.479Z,15.67
2023-05-08T13:50:54.298Z,15.52
2023-05-08T13:53:21.881Z,15.46
2023-05-08T13:55:49.460Z,15.60
2023-05-08T13:58:17.078Z,15.59
2023-05-08T14:00:45.503Z,15.64
2023-05-08T14:03:13.262Z,15.59
2023-05-08T14:05:40.953Z,15.56
2023-05-08T14:08:08.720Z,15.67
2023-05-08T14:10:36.468Z,15.49
2023-05-08T14:13:04.283Z,15.34
2023-05-08T14:15:37.088Z,15.27
2023-05-08T14:18:06.021Z,15.25
2023-05-08T14:20:34.935Z,15.15
2023-05-08T14:23:02.868Z,15.19
2023-05-08T14:25:30.726Z,15.16
2023-05-08T14:27:58.297Z,15.15
2023-05-08T14:30:25.901Z,15.14
2023-05-08T14:32:53.635Z,15.22
2023-05-08T14:35:21.308Z,15.17
2023-05-08T14:37:48.753Z,15.02
2023-05-08T14:40:16.311Z,15.03
2023-05-08T14:42:43.861Z,15.08
2023-05-08T14:45:11.734Z,15.05
2023-05-08T14:47:39.736Z,15.00
2023-05-08T14:50:07.805Z,15.08
2023-05-08T14:52:35.866Z,15.11
2023-05-08T14:55:03.778Z,15.07
2023-05-08T14:57:31.597Z,15.07
2023-05-08T14:59:59.201Z,15.01
2023-05-08T15:02:26.794Z,14.99
2023-05-08T15:04:54.324Z,14.89
2023-05-08T15:07:21.860Z,14.92
2023-05-08T15:09:49.420Z,15.57
2023-05-08T15:12:17.010Z,15.79
2023-05-08T15:14:45.421Z,16.31
2023-05-08T15:17:13.164Z,15.95
2023-05-08T15:19:40.817Z,15.59
2023-05-08T15:22:08.903Z,15.14
2023-05-08T15:24:36.652Z,15.00
2023-05-08T15:27:04.315Z,15.00
2023-05-08T15:29:32.337Z,14.98
2023-05-08T15:31:59.920Z,14.84
2023-05-08T15:34:32.323Z,14.87
2023-05-08T15:37:00.749Z,14.87
2023-05-08T15:39:28.328Z,14.76
2023-05-08T15:41:55.815Z,14.73
2023-05-08T15:44:24.877Z,14.69
2023-05-08T15:46:54.114Z,14.64
2023-05-08T15:49:25.787Z,14.63
2023-05-08T15:51:53.846Z,14.59
2023-05-08T15:54:22.779Z,14.46
2023-05-08T15:56:50.484Z,14.39
2023-05-08T15:59:17.996Z,14.41
2023-05-08T16:01:46.980Z,14.39
2023-05-08T16:04:14.562Z,14.40
2023-05-08T16:06:42.088Z,14.35
2023-05-08T16:09:09.569Z,14.26
2023-05-08T16:11:37.206Z,14.14
2023-05-08T16:14:05.075Z,14.12
2023-05-08T16:16:33.050Z,13.98
2023-05-08T16:19:00.977Z,13.95
2023-05-08T16:21:28.621Z,13.95
2023-05-08T16:23:56.203Z,13.94
2023-05-08T16:26:24.062Z,14.01
2023-05-08T16:28:52.089Z,14.00
2023-05-08T16:31:19.935Z,14.00
2023-05-08T16:33:47.615Z,13.99
2023-05-08T16:36:15.151Z,13.98
2023-05-08T16:38:42.677Z,13.88
2023-05-08T16:41:11.337Z,13.84
2023-05-08T16:43:39.332Z,13.76
2023-05-08T16:46:07.477Z,13.76
2023-05-08T16:48:35.530Z,13.75
2023-05-08T16:51:03.072Z,13.69
2023-05-08T16:53:32.627Z,13.61
2023-05-08T16:56:00.576Z,13.56
2023-05-08T16:58:28.225Z,13.54
2023-05-08T17:00:55.824Z,13.54
2023-05-08T17:03:23.794Z,13.51
2023-05-08T17:05:51.595Z,13.50
2023-05-08T17:08:19.347Z,13.47
2023-05-08T17:10:46.876Z,13.44
2023-05-08T17:13:14.568Z,13.35
2023-05-08T17:15:42.129Z,13.31
2023-05-08T17:18:10.037Z,13.31
2023-05-08T17:20:41.086Z,13.26
2023-05-08T17:23:09.515Z,13.20
2023-05-08T17:25:37.742Z,13.15
2023-05-08T17:28:05.426Z,13.15
2023-05-08T17:30:33.386Z,13.14
2023-05-08T17:33:00.988Z,13.10
2023-05-08T17:35:28.582Z,13.05
2023-05-08T17:37:56.382Z,13.03
2023-05-08T17:40:25.864Z,13.01
2023-05-08T17:42:53.438Z,12.95
2023-05-08T17:45:20.867Z,12.96
2023-05-08T17:47:48.412Z,12.91
2023-05-08T17:50:16.029Z,12.84
2023-05-08T17:52:43.633Z,12.84
2023-05-08T17:55:11.316Z,12.82
2023-05-08T17:57:38.945Z,12.79
2023-05-08T18:00:07.273Z,12.78
2023-05-08T18:02:36.695Z,12.72
2023-05-08T18:05:04.693Z,12.67
2023-05-08T18:07:32.333Z,12.60
2023-05-08T18:10:00.097Z,12.59
2023-05-08T18:12:28.162Z,12.56
2023-05-08T18:14:55.654Z,12.48
2023-05-08T18:17:23.291Z,12.39
2023-05-08T18:19:51.022Z,12.39
2023-05-08T18:22:18.595Z,12.30
2023-05-08T18:24:46.207Z,12.21
2023-05-08T18:27:13.744Z,12.20
2023-05-08T18:29:41.333Z,12.20
2023-05-08T18:32:08.862Z,12.21
2023-05-08T18:34:36.755Z,12.14
2023-05-08T18:37:04.400Z,12.13
2023-05-08T18:39:31.933Z,12.11
2023-05-08T18:41:59.483Z,12.03
2023-05-08T18:44:27.000Z,12.05
2023-05-08T18:46:54.574Z,11.95
2023-05-08T18:49:22.296Z,11.92
2023-05-08T18:51:49.956Z,11.89
2023-05-08T18:54:17.487Z,11.92
2023-05-08T18:56:45.074Z,11.85
2023-05-08T18:59:12.542Z,11.81
2023-05-08T19:01:40.134Z,11.75
2023-05-08T19:04:07.814Z,11.75
2023-05-08T19:06:35.572Z,11.79
2023-05-08T19:09:03.295Z,11.72
2023-05-08T19:11:31.136Z,11.71
2023-05-08T19:13:58.748Z,11.71
2023-05-08T19:16:26.523Z,11.69
2023-05-08T19:18:54.087Z,11.67
2023-05-08T19:21:21.663Z,11.69
2023-05-08T19:23:49.239Z,11.61
2023-05-08T19:26:16.831Z,11.57
2023-05-08T19:28:44.350Z,11.57
2023-05-08T19:31:12.093Z,11.58
2023-05-08T19:33:39.691Z,11.54
2023-05-08T19:36:07.283Z,11.48
2023-05-08T19:38:37.174Z,11.54
2023-05-08T19:41:04.592Z,11.51
2023-05-08T19:43:32.387Z,11.56
2023-05-08T19:46:00.286Z,11.55
2023-05-08T19:48:27.898Z,11.62
2023-05-08T19:50:55.583Z,11.58
2023-05-08T19:53:23.677Z,11.59
2023-05-08T19:55:51.291Z,11.64
2023-05-08T19:58:19.046Z,11.72
2023-05-08T20:03:17.209Z,11.83
2023-05-08T20:05:45.150Z,11.85
2023-05-08T20:08:12.771Z,11.86
2023-05-08T20:10:40.397Z,11.75
2023-05-08T20:13:08.046Z,11.44
2023-05-08T20:15:35.729Z,11.26
2023-05-08T20:18:05.681Z,11.22
2023-05-08T20:20:34.889Z,11.20
2023-05-08T20:23:03.032Z,11.19
2023-05-08T20:25:30.638Z,11.11
2023-05-08T20:27:58.271Z,11.11
2023-05-08T20:30:25.975Z,11.11
2023-05-08T20:32:53.570Z,11.12
2023-05-08T20:35:21.267Z,11.02
2023-05-08T20:37:49.480Z,11.01
2023-05-08T20:40:17.230Z,11.12
2023-05-08T20:42:44.932Z,11.12
2023-05-08T20:45:12.523Z,11.14
2023-05-08T20:47:40.814Z,11.15
2023-05-08T20:50:08.731Z,11.18
2023-05-08T20:52:37.996Z,11.20
2023-05-08T20:55:07.162Z,11.19
2023-05-08T20:57:34.984Z,11.17
2023-05-08T21:00:03.550Z,11.21
2023-05-08T21:02:31.506Z,11.26
2023-05-08T21:04:59.252Z,11.27
2023-05-08T22:02:14.071Z,11.14
2023-05-08T22:04:41.722Z,11.11
2023-05-08T22:07:09.305Z,11.03
2023-05-08T22:09:37.310Z,11.03
2023-05-08T22:12:06.488Z,11.06
2023-05-08T22:14:34.826Z,11.05
2023-05-08T22:17:02.433Z,11.04
2023-05-08T22:19:31.023Z,11.03
2023-05-08T22:21:58.625Z,11.04
2023-05-08T22:24:26.489Z,11.03
2023-05-08T22:26:54.262Z,11.03
2023-05-08T22:29:21.879Z,11.01
2023-05-08T22:31:49.763Z,11.08
2023-05-08T22:34:17.997Z,11.02
2023-05-08T22:36:45.706Z,10.92
2023-05-08T22:39:13.341Z,10.87
2023-05-08T22:41:40.982Z,10.82
2023-05-08T22:44:08.755Z,10.86
2023-05-08T22:46:37.096Z,10.86
2023-05-08T22:49:05.039Z,10.91
2023-05-08T22:51:33.146Z,10.90
2023-05-08T22:54:00.832Z,10.87
2023-05-08T22:56:28.610Z,10.82
2023-05-08T22:58:56.181Z,10.76
2023-05-08T23:01:23.773Z,10.74
2023-05-08T23:03:53.785Z,10.79
2023-05-08T23:06:21.451Z,10.74
2023-05-08T23:08:49.089Z,10.76
2023-05-08T23:11:16.663Z,10.74
2023-05-08T23:13:44.294Z,10.73
2023-05-08T23:16:11.954Z,10.72
2023-05-08T23:18:39.655Z,10.67
2023-05-08T23:21:08.456Z,10.65
2023-05-08T23:23:36.724Z,10.71
2023-05-08T23:26:05.230Z,10.70
2023-05-08T23:28:35.042Z,10.65
2023-05-08T23:31:03.587Z,10.71
2023-05-08T23:33:31.500Z,10.72
2023-05-08T23:35:59.261Z,10.72
2023-05-08T23:38:27.217Z,10.71
2023-05-08T23:40:54.828Z,10.67
2023-05-08T23:43:22.749Z,10.65
2023-05-08T23:45:50.600Z,10.66
2023-05-08T23:48:18.276Z,10.71
2023-05-08T23:50:46.571Z,10.67
2023-05-08T23:53:14.169Z,10.72
2023-05-08T23:55:42.042Z,10.68
2023-05-08T23:58:09.726Z,10.69
